Terminal Aerodrome Forecast
Issued by NWS Albany, NY

Home | Current Version | Previous Version | Text Only | Print | Product List | Glossary On
Versions: 1 2 3 4 5 6 7 8 9 10 11 12 13 14 15 16 17 18 19 20 21 22 23 24 25 26 27 28 29 30
000
FTUS41 KALY 171100
TAFALB
TAF
KALB 171134Z 1712/1812 02004KT P6SM FEW260
     FM171400 07006KT P6SM SCT250
     FM171700 14010KT P6SM SCT250
     FM180300 14006KT P6SM SCT250=

USA.gov is the U.S. government's official web portal to all federal, state and local government web resources and services.